Time;durP1;ratioP1;P1;durP2;ratioP2;P2;SDS_P1;SDS_P2;PMS_P1;PMS_P2;Temp;Humidity;BMP_temperature;BMP_pressure;BME280_temperature;BME280_humidity;BME280_pressure;Samples;Min_cycle;Max_cycle;Signal;HPM_P1;HPM_P2
2022/04/05 00:02:12;;;;;;;;;;;;;;;10.84;38.72;99007.41;4485555;31;33548;-63
2022/04/05 00:04:41;;;;;;;;;;;;;;;10.17;40.86;99006.00;4488997;31;33642;-62
2022/04/05 00:07:08;;;;;;;;;;;;;;;10.56;40.16;99005.41;4480955;31;34486;-62
2022/04/05 00:09:38;;;;;;;;;;;;;;;10.55;40.19;98995.72;4480586;31;34018;-64
2022/04/05 00:12:06;;;;;;;;;;;;;;;10.83;39.68;98997.69;4485941;31;32092;-62
2022/04/05 00:14:34;;;;;;;;;;;;;;;10.82;39.36;98990.62;4482794;31;35290;-62
2022/04/05 00:17:05;;;;;;;;;;;;;;;10.32;40.55;98995.84;4488754;31;33041;-61
2022/04/05 00:19:33;;;;;;;;;;;;;;;11.09;38.65;98992.69;4484419;31;34364;-63
2022/04/05 00:22:03;;;;;;;;;;;;;;;11.13;38.73;98983.41;4484752;31;32210;-61
2022/04/05 00:24:31;;;;;;;;;;;;;;;11.25;38.56;98985.97;4482739;31;32616;-61
2022/04/05 00:27:00;;;;;;;;;;;;;;;10.94;39.01;98992.22;4483174;31;35489;-61
2022/04/05 00:29:28;;;;;;;;;;;;;;;10.51;40.14;98986.25;4480597;31;35143;-62
2022/04/05 00:31:56;;;;;;;;;;;;;;;10.71;39.89;98990.72;4490157;31;32865;-63
2022/04/05 00:34:27;;;;;;;;;;;;;;;10.78;39.51;98988.34;4487240;31;35111;-61
2022/04/05 00:36:56;;;;;;;;;;;;;;;11.10;39.00;98982.81;4476347;31;34120;-61
2022/04/05 00:39:26;;;;;;;;;;;;;;;11.03;38.42;98979.00;4487404;31;33838;-63
2022/04/05 00:41:55;;;;;;;;;;;;;;;10.92;38.63;98974.63;4489649;31;33057;-62
2022/04/05 00:44:24;;;;;;;;;;;;;;;10.94;39.27;98972.63;4495483;31;33324;-62
2022/04/05 00:46:53;;;;;;;;;;;;;;;10.99;39.15;98967.72;4489813;31;35511;-61
2022/04/05 00:49:27;;;;;;;;;;;;;;;10.89;39.78;98967.69;4469763;31;34263;-60
2022/04/05 00:51:55;;;;;;;;;;;;;;;11.14;39.35;98962.84;4468297;32;32271;-62
2022/04/05 00:54:23;;;;;;;;;;;;;;;10.45;40.40;98958.19;4492904;31;34989;-62
2022/04/05 00:56:53;;;;;;;;;;;;;;;10.36;41.12;98961.66;4468895;31;33839;-61
2022/04/05 00:59:22;;;;;;;;;;;;;;;10.45;41.07;98955.53;4470054;31;34644;-62
2022/04/05 01:01:50;;;;;;;;;;;;;;;10.73;40.46;98949.47;4466424;31;32947;-62
2022/04/05 01:04:18;;;;;;;;;;;;;;;10.48;40.61;98958.78;4490601;31;33887;-64
2022/04/05 01:06:46;;;;;;;;;;;;;;;10.70;40.65;98962.28;4472643;32;34677;-62
2022/04/05 01:09:14;;;;;;;;;;;;;;;11.09;39.25;98951.69;4471685;31;33035;-63
2022/04/05 01:11:46;;;;;;;;;;;;;;;10.69;39.69;98952.56;4482423;31;32538;-62
2022/04/05 01:14:17;;;;;;;;;;;;;;;11.00;38.91;98950.66;4467785;31;33245;-61
2022/04/05 01:16:45;;;;;;;;;;;;;;;11.12;38.35;98952.25;4488005;31;34732;-61
2022/04/05 01:19:14;;;;;;;;;;;;;;;10.80;39.00;98952.44;4471578;31;33883;-60
2022/04/05 01:21:43;;;;;;;;;;;;;;;10.75;39.06;98946.63;4493355;31;32221;-61
2022/04/05 01:24:14;;;;;;;;;;;;;;;11.01;38.70;98943.47;4487651;31;34404;-61
2022/04/05 01:26:48;;;;;;;;;;;;;;;10.91;39.02;98947.00;4481748;31;34464;-62
2022/04/05 01:29:17;;;;;;;;;;;;;;;10.90;39.28;98945.28;4481538;31;34148;-61
2022/04/05 01:31:48;;;;;;;;;;;;;;;11.00;38.75;98933.75;4490809;31;33423;-60
2022/04/05 01:34:21;;;;;;;;;;;;;;;10.94;38.96;98930.62;4486787;31;32867;-62
2022/04/05 01:36:51;;;;;;;;;;;;;;;10.27;40.88;98939.22;4483217;31;34060;-62
2022/04/05 01:39:20;;;;;;;;;;;;;;;10.61;40.18;98939.81;4489631;31;33355;-61
2022/04/05 01:41:51;;;;;;;;;;;;;;;10.56;40.04;98939.41;4482668;31;31967;-62
2022/04/05 01:44:21;;;;;;;;;;;;;;;10.40;40.43;98941.69;4487989;31;34225;-60
2022/04/05 01:46:50;;;;;;;;;;;;;;;10.25;41.09;98938.50;4482271;32;34142;-60
2022/04/05 01:49:20;;;;;;;;;;;;;;;10.62;40.14;98941.50;4493818;31;35220;-61
2022/04/05 01:51:51;;;;;;;;;;;;;;;10.53;40.72;98942.34;4496280;31;33421;-61
2022/04/05 01:54:21;;;;;;;;;;;;;;;10.37;40.97;98937.47;4496627;31;34790;-60
2022/04/05 01:56:50;;;;;;;;;;;;;;;10.03;41.85;98939.50;4483043;31;34171;-61
2022/04/05 01:59:25;;;;;;;;;;;;;;;10.61;40.45;98938.97;4487267;31;34536;-62
2022/04/05 02:02:07;;;;;;;;;;;;;;;10.64;40.37;98936.88;4492842;31;32347;-63
2022/04/05 02:04:37;;;;;;;;;;;;;;;10.64;40.24;98934.22;4490975;31;33954;-63
2022/04/05 02:07:12;;;;;;;;;;;;;;;10.67;40.20;98927.75;4480640;32;34075;-61
2022/04/05 02:09:40;;;;;;;;;;;;;;;10.30;41.21;98922.06;4491281;31;33699;-60
2022/04/05 02:12:10;;;;;;;;;;;;;;;10.14;41.74;98923.34;4492534;31;34887;-61
2022/04/05 02:14:39;;;;;;;;;;;;;;;10.37;40.84;98916.06;4491222;31;34316;-61
2022/04/05 02:17:08;;;;;;;;;;;;;;;10.44;41.08;98921.75;4480616;32;34356;-61
2022/04/05 02:19:39;;;;;;;;;;;;;;;10.43;41.10;98926.25;4482419;31;32802;-62
2022/04/05 02:22:09;;;;;;;;;;;;;;;10.43;40.80;98920.91;4490678;31;33160;-61
2022/04/05 02:24:38;;;;;;;;;;;;;;;10.38;41.21;98920.44;4483823;31;33995;-62
2022/04/05 02:27:08;;;;;;;;;;;;;;;10.55;40.85;98912.75;4483425;31;33106;-61
2022/04/05 02:29:39;;;;;;;;;;;;;;;10.59;40.97;98924.88;4485469;31;34752;-62
2022/04/05 02:32:08;;;;;;;;;;;;;;;10.69;40.42;98926.63;4487040;31;34140;-60
2022/04/05 02:34:38;;;;;;;;;;;;;;;10.41;41.54;98911.31;4481116;31;34869;-61
2022/04/05 02:37:08;;;;;;;;;;;;;;;10.52;41.53;98907.69;4490802;31;34215;-61
2022/04/05 02:39:38;;;;;;;;;;;;;;;10.88;40.39;98901.75;4465557;31;34131;-60
2022/04/05 02:42:08;;;;;;;;;;;;;;;10.91;40.23;98901.47;4480709;31;33434;-60
2022/04/05 02:44:39;;;;;;;;;;;;;;;10.78;40.88;98902.69;4488968;31;33222;-62
2022/04/05 02:47:09;;;;;;;;;;;;;;;10.88;40.44;98899.09;4486220;31;34193;-62
2022/04/05 02:49:37;;;;;;;;;;;;;;;11.02;40.12;98895.16;4487788;31;36045;-62
2022/04/05 02:52:07;;;;;;;;;;;;;;;11.19;39.61;98888.25;4496321;31;34921;-60
2022/04/05 02:54:38;;;;;;;;;;;;;;;11.11;40.37;98893.50;4482729;31;34094;-62
2022/04/05 02:57:06;;;;;;;;;;;;;;;11.37;39.36;98891.13;4486820;31;33958;-61
2022/04/05 02:59:35;;;;;;;;;;;;;;;11.12;40.44;98895.16;4484800;31;34303;-63
2022/04/05 03:02:04;;;;;;;;;;;;;;;10.81;41.07;98889.88;4494825;31;33489;-61
2022/04/05 03:04:36;;;;;;;;;;;;;;;11.27;40.06;98890.22;4481775;31;35252;-61
2022/04/05 03:07:05;;;;;;;;;;;;;;;10.81;41.20;98878.34;4484831;31;34940;-61
2022/04/05 03:09:34;;;;;;;;;;;;;;;11.15;40.43;98879.66;4483150;31;33960;-61
2022/04/05 03:12:02;;;;;;;;;;;;;;;11.00;40.93;98875.69;4483692;31;33095;-62
2022/04/05 03:14:32;;;;;;;;;;;;;;;11.39;39.79;98870.38;4482291;31;34980;-61
2022/04/05 03:17:00;;;;;;;;;;;;;;;11.21;40.41;98872.91;4485492;31;35192;-61
2022/04/05 03:19:29;;;;;;;;;;;;;;;10.84;41.26;98865.50;4495636;31;34235;-62
2022/04/05 03:21:58;;;;;;;;;;;;;;;11.39;40.09;98865.00;4485631;31;33489;-62
2022/04/05 03:24:27;;;;;;;;;;;;;;;11.17;40.91;98860.75;4481700;31;34092;-62
2022/04/05 03:26:55;;;;;;;;;;;;;;;11.52;39.80;98864.72;4482286;31;33522;-62
2022/04/05 03:29:25;;;;;;;;;;;;;;;11.39;40.21;98863.16;4486124;31;34232;-62
2022/04/05 03:31:54;;;;;;;;;;;;;;;11.33;40.45;98863.75;4490171;31;34545;-62
2022/04/05 03:34:24;;;;;;;;;;;;;;;11.41;40.33;98860.38;4488487;31;33753;-61
2022/04/05 03:36:54;;;;;;;;;;;;;;;11.43;40.13;98861.91;4486579;31;34270;-61
2022/04/05 03:39:23;;;;;;;;;;;;;;;11.25;40.32;98863.59;4481280;31;34760;-61
2022/04/05 03:41:51;;;;;;;;;;;;;;;11.21;39.97;98859.53;4482839;31;34564;-61
2022/04/05 03:44:20;;;;;;;;;;;;;;;11.24;40.17;98859.25;4481494;31;35153;-61
2022/04/05 03:46:51;;;;;;;;;;;;;;;11.23;39.98;98862.03;4483368;31;34370;-61
2022/04/05 03:49:19;;;;;;;;;;;;;;;10.98;40.91;98855.38;4480710;31;34097;-62
2022/04/05 03:51:51;;;;;;;;;;;;;;;10.94;41.36;98861.03;4480599;31;33098;-62
2022/04/05 03:54:19;;;;;;;;;;;;;;;10.99;41.12;98855.25;4494345;31;34083;-61
2022/04/05 03:56:47;;;;;;;;;;;;;;;11.25;40.33;98852.88;4497034;31;32872;-61
2022/04/05 03:59:19;;;;;;;;;;;;;;;11.25;40.28;98849.38;4489079;31;34103;-61
2022/04/05 04:01:47;;;;;;;;;;;;;;;10.93;41.17;98859.34;4487401;31;33574;-61
2022/04/05 04:04:17;;;;;;;;;;;;;;;11.20;40.40;98844.41;4490539;31;35222;-61
2022/04/05 04:06:45;;;;;;;;;;;;;;;11.12;40.33;98844.28;4488864;31;34310;-60
2022/04/05 04:09:14;;;;;;;;;;;;;;;11.17;40.59;98845.56;4483362;31;34012;-61
2022/04/05 04:11:44;;;;;;;;;;;;;;;11.23;40.56;98848.66;4490948;31;32320;-61
2022/04/05 04:14:13;;;;;;;;;;;;;;;11.27;40.39;98850.94;4488662;31;34318;-61
2022/04/05 04:16:42;;;;;;;;;;;;;;;11.41;40.13;98857.69;4495597;31;34273;-60
2022/04/05 04:19:13;;;;;;;;;;;;;;;11.45;39.95;98855.56;4492451;31;33755;-61
2022/04/05 04:21:46;;;;;;;;;;;;;;;11.28;40.54;98844.56;4482895;32;33348;-61
2022/04/05 04:24:16;;;;;;;;;;;;;;;11.41;40.25;98845.13;4480436;31;34853;-61
2022/04/05 04:26:45;;;;;;;;;;;;;;;11.30;40.64;98841.75;4484416;31;34143;-61
2022/04/05 04:29:16;;;;;;;;;;;;;;;11.49;39.88;98844.41;4483492;31;34228;-60
2022/04/05 04:31:45;;;;;;;;;;;;;;;11.58;39.71;98848.91;4482063;32;33484;-61
2022/04/05 04:34:14;;;;;;;;;;;;;;;11.59;39.87;98844.44;4482486;32;33978;-62
2022/04/05 04:36:44;;;;;;;;;;;;;;;11.65;39.99;98852.72;4482155;31;35438;-62
2022/04/05 04:39:16;;;;;;;;;;;;;;;11.58;40.56;98854.28;4482609;31;35194;-63
2022/04/05 04:41:46;;;;;;;;;;;;;;;11.51;40.83;98855.00;4485216;31;32120;-62
2022/04/05 04:44:16;;;;;;;;;;;;;;;11.78;40.29;98855.13;4468473;31;32939;-62
2022/04/05 04:46:45;;;;;;;;;;;;;;;11.92;39.68;98855.69;4495203;31;32833;-61
2022/04/05 04:49:15;;;;;;;;;;;;;;;11.91;39.36;98854.84;4490905;31;33099;-61
2022/04/05 04:51:44;;;;;;;;;;;;;;;11.73;39.76;98862.72;4492899;31;32118;-62
2022/04/05 04:54:15;;;;;;;;;;;;;;;11.85;39.83;98855.41;4483596;31;34222;-62
2022/04/05 04:56:44;;;;;;;;;;;;;;;11.83;39.71;98858.19;4489599;31;34256;-62
2022/04/05 04:59:16;;;;;;;;;;;;;;;11.83;39.96;98858.19;4484189;31;34354;-60
2022/04/05 05:01:55;;;;;;;;;;;;;;;11.96;39.68;98857.06;4486146;31;32085;-61
2022/04/05 05:04:35;;;;;;;;;;;;;;;11.85;39.58;98855.41;4486124;31;32960;-62
2022/04/05 05:07:21;;;;;;;;;;;;;;;11.92;39.76;98861.03;4491984;31;34213;-62
2022/04/05 05:10:00;;;;;;;;;;;;;;;12.09;39.33;98858.44;4492658;31;33921;-61
2022/04/05 05:12:31;;;;;;;;;;;;;;;11.66;39.95;98853.56;4489661;31;33297;-62
2022/04/05 05:15:10;;;;;;;;;;;;;;;11.79;40.05;98851.44;4482526;31;34206;-61
2022/04/05 05:17:46;;;;;;;;;;;;;;;12.19;38.55;98853.03;4493744;31;33100;-62
2022/04/05 05:20:20;;;;;;;;;;;;;;;11.76;40.38;98854.41;4501445;31;34957;-61
2022/04/05 05:23:05;;;;;;;;;;;;;;;12.03;39.05;98852.81;4496532;31;32253;-61
2022/04/05 05:25:47;;;;;;;;;;;;;;;12.11;38.74;98845.72;4485793;31;33993;-61
2022/04/05 05:28:24;;;;;;;;;;;;;;;12.19;38.97;98847.66;4492489;31;32696;-60
2022/04/05 05:31:07;;;;;;;;;;;;;;;11.66;39.81;98848.22;4489568;31;34174;-61
2022/04/05 05:33:50;;;;;;;;;;;;;;;11.06;41.00;98850.19;4492751;31;34016;-62
2022/04/05 05:36:29;;;;;;;;;;;;;;;11.46;40.32;98850.06;4495987;31;33106;-61
2022/04/05 05:39:14;;;;;;;;;;;;;;;11.57;40.06;98854.44;4487044;31;33148;-61
2022/04/05 05:41:52;;;;;;;;;;;;;;;11.34;40.69;98854.72;4490644;31;32756;-61
2022/04/05 05:44:29;;;;;;;;;;;;;;;10.98;41.91;98852.72;4498224;31;32281;-61
2022/04/05 05:46:57;;;;;;;;;;;;;;;11.33;40.83;98839.66;4471425;31;34225;-61
2022/04/05 05:49:37;;;;;;;;;;;;;;;11.45;40.42;98853.72;4485762;31;34212;-61
2022/04/05 05:52:15;;;;;;;;;;;;;;;11.61;40.84;98867.38;4488441;31;33929;-61
2022/04/05 05:54:53;;;;;;;;;;;;;;;11.88;39.72;98863.16;4492405;31;33314;-62
2022/04/05 05:57:22;;;;;;;;;;;;;;;11.39;40.28;98873.03;4485077;32;33824;-63
2022/04/05 06:00:17;;;;;;;;;;;;;;;11.57;40.71;98881.22;4495727;31;33039;-61
2022/04/05 06:03:06;;;;;;;;;;;;;;;11.64;39.63;98880.50;4499396;31;34180;-61
2022/04/05 06:05:43;;;;;;;;;;;;;;;11.78;39.66;98884.59;4493470;31;33222;-61
2022/04/05 06:08:24;;;;;;;;;;;;;;;11.91;40.17;98872.72;4497277;31;34951;-61
2022/04/05 06:11:02;;;;;;;;;;;;;;;12.14;39.91;98882.16;4500094;31;33510;-61
2022/04/05 06:13:42;;;;;;;;;;;;;;;12.32;39.34;98890.28;4483357;32;35433;-61
2022/04/05 06:16:20;;;;;;;;;;;;;;;12.44;39.14;98880.22;4485215;32;33254;-61
2022/04/05 06:19:01;;;;;;;;;;;;;;;12.76;38.09;98885.16;4485065;32;34375;-61
2022/04/05 06:21:33;;;;;;;;;;;;;;;12.89;37.82;98876.72;4484673;31;34117;-61
2022/04/05 06:24:08;;;;;;;;;;;;;;;12.92;37.84;98887.19;4497584;31;34411;-60
2022/04/05 06:26:49;;;;;;;;;;;;;;;12.68;38.43;98879.66;4488276;31;32088;-63
2022/04/05 06:29:27;;;;;;;;;;;;;;;12.83;38.31;98879.00;4489314;31;32832;-61
2022/04/05 06:32:05;;;;;;;;;;;;;;;13.14;37.67;98875.16;4493770;31;33154;-61
2022/04/05 06:34:40;;;;;;;;;;;;;;;13.28;37.82;98880.03;4486675;31;34043;-62
2022/04/05 06:37:19;;;;;;;;;;;;;;;13.16;38.35;98865.09;4488953;31;33559;-61
2022/04/05 06:39:55;;;;;;;;;;;;;;;13.34;37.30;98870.53;4487550;31;32866;-62
2022/04/05 06:42:31;;;;;;;;;;;;;;;13.53;37.06;98862.28;4496362;31;34649;-61
2022/04/05 06:45:14;;;;;;;;;;;;;;;13.57;36.67;98869.03;4483400;31;33148;-61
2022/04/05 06:48:02;;;;;;;;;;;;;;;13.26;38.19;98869.44;4487621;31;32168;-61
2022/04/05 06:50:39;;;;;;;;;;;;;;;13.25;37.91;98873.09;4496933;31;32763;-61
2022/04/05 06:53:14;;;;;;;;;;;;;;;13.21;38.35;98877.06;4486040;31;35146;-61
2022/04/05 06:55:51;;;;;;;;;;;;;;;13.44;37.13;98869.44;4488803;31;35032;-61
2022/04/05 06:58:28;;;;;;;;;;;;;;;13.15;38.28;98871.47;4483677;31;34329;-61
2022/04/05 07:01:03;;;;;;;;;;;;;;;13.36;37.80;98865.84;4495794;31;31884;-61
2022/04/05 07:03:50;;;;;;;;;;;;;;;13.53;37.34;98864.97;4500496;31;34366;-61
2022/04/05 07:06:25;;;;;;;;;;;;;;;13.80;37.01;98868.53;4487904;31;33113;-61
2022/04/05 07:09:02;;;;;;;;;;;;;;;14.05;36.49;98859.66;4486828;31;33250;-61
2022/04/05 07:11:41;;;;;;;;;;;;;;;14.19;36.11;98864.47;4487453;31;32942;-61
2022/04/05 07:14:25;;;;;;;;;;;;;;;14.25;36.79;98862.97;4487674;31;33123;-61
2022/04/05 07:16:55;;;;;;;;;;;;;;;14.32;35.99;98871.28;4487048;31;35283;-61
2022/04/05 07:19:26;;;;;;;;;;;;;;;14.29;36.59;98871.59;4484277;31;32005;-61
2022/04/05 07:22:04;;;;;;;;;;;;;;;14.55;36.85;98875.09;4484933;31;33095;-62
2022/04/05 07:24:50;;;;;;;;;;;;;;;14.17;36.91;98858.37;4484500;31;33935;-61
2022/04/05 07:27:29;;;;;;;;;;;;;;;14.39;36.73;98864.22;4486098;31;33265;-61
2022/04/05 07:30:10;;;;;;;;;;;;;;;14.48;37.42;98857.00;4485741;31;32023;-61
2022/04/05 07:32:48;;;;;;;;;;;;;;;14.83;36.66;98856.88;4484265;31;32987;-62
2022/04/05 07:35:20;;;;;;;;;;;;;;;15.00;36.13;98856.94;4484424;31;33124;-61
2022/04/05 07:38:01;;;;;;;;;;;;;;;14.98;35.94;98846.28;4484656;31;35237;-61
2022/04/05 07:40:53;;;;;;;;;;;;;;;15.08;35.54;98852.38;4489872;31;33238;-60
2022/04/05 07:43:33;;;;;;;;;;;;;;;14.70;36.06;98848.38;4483917;31;32808;-61
2022/04/05 07:46:10;;;;;;;;;;;;;;;14.70;35.96;98843.00;4485713;31;34217;-61
2022/04/05 07:48:52;;;;;;;;;;;;;;;14.60;36.41;98848.53;4486258;31;34379;-61
2022/04/05 07:51:31;;;;;;;;;;;;;;;14.60;35.85;98855.75;4497964;31;33532;-62
2022/04/05 07:54:13;;;;;;;;;;;;;;;13.98;37.26;98854.06;4500463;31;34275;-61
2022/04/05 07:57:00;;;;;;;;;;;;;;;14.36;35.83;98864.56;4489137;31;33366;-61
2022/04/05 07:59:37;;;;;;;;;;;;;;;14.41;35.98;98862.19;4484276;31;33259;-61
2022/04/05 08:02:25;;;;;;;;;;;;;;;14.34;36.63;98863.84;4484523;31;33659;-61
2022/04/05 08:05:07;;;;;;;;;;;;;;;13.44;38.23;98865.91;4484624;31;33911;-61
2022/04/05 08:07:50;;;;;;;;;;;;;;;13.00;39.17;98860.38;4491855;31;34033;-64
2022/04/05 08:10:31;;;;;;;;;;;;;;;13.86;38.29;98858.00;4482815;32;33017;-61
2022/04/05 08:13:15;;;;;;;;;;;;;;;14.21;38.19;98848.13;4483989;32;33278;-61
2022/04/05 08:15:55;;;;;;;;;;;;;;;13.77;38.84;98850.87;4483828;32;32849;-61
2022/04/05 08:18:39;;;;;;;;;;;;;;;13.45;39.15;98854.12;4483190;31;35324;-61
2022/04/05 08:21:29;;;;;;;;;;;;;;;13.57;38.24;98860.97;4483632;31;33536;-60
2022/04/05 08:24:06;;;;;;;;;;;;;;;14.10;36.10;98859.19;4485086;31;33436;-62
2022/04/05 08:26:50;;;;;;;;;;;;;;;13.38;36.88;98856.59;4483770;31;33181;-62
2022/04/05 08:29:31;;;;;;;;;;;;;;;13.04;37.26;98859.13;4491961;31;34352;-61
2022/04/05 08:32:11;;;;;;;;;;;;;;;13.20;37.81;98853.91;4484120;31;32843;-61
2022/04/05 08:34:42;;;;;;;;;;;;;;;13.86;36.31;98868.75;4489827;31;32392;-61
2022/04/05 08:37:26;;;;;;;;;;;;;;;13.48;35.56;98861.91;4497373;31;34047;-60
2022/04/05 08:40:07;;;;;;;;;;;;;;;13.64;36.33;98862.06;4499791;31;33048;-61
2022/04/05 08:42:51;;;;;;;;;;;;;;;13.67;35.25;98861.72;4500034;31;33200;-61
2022/04/05 08:45:28;;;;;;;;;;;;;;;13.52;34.36;98858.75;4486511;31;33165;-61
2022/04/05 08:48:12;;;;;;;;;;;;;;;13.54;35.42;98858.59;4490916;31;32972;-60
2022/04/05 08:50:44;;;;;;;;;;;;;;;13.31;34.66;98860.06;4474611;31;32870;-62
2022/04/05 08:53:16;;;;;;;;;;;;;;;13.83;35.21;98852.09;4492269;31;32917;-62
2022/04/05 08:55:53;;;;;;;;;;;;;;;13.65;35.09;98861.06;4482438;31;32570;-61
2022/04/05 08:58:38;;;;;;;;;;;;;;;12.53;37.24;98853.31;4483628;32;33155;-61
2022/04/05 09:01:17;;;;;;;;;;;;;;;12.76;37.64;98853.75;4487029;31;33261;-61
2022/04/05 09:03:50;;;;;;;;;;;;;;;13.81;35.92;98846.06;4490980;31;33053;-61
2022/04/05 09:06:29;;;;;;;;;;;;;;;12.82;38.15;98855.00;4488590;31;32133;-62
2022/04/05 09:09:07;;;;;;;;;;;;;;;13.50;37.88;98855.38;4488204;31;34155;-61
2022/04/05 09:11:49;;;;;;;;;;;;;;;13.51;37.58;98857.09;4486781;31;35163;-63
2022/04/05 09:14:30;;;;;;;;;;;;;;;14.12;36.69;98855.31;4483990;32;34111;-62
2022/04/05 09:17:10;;;;;;;;;;;;;;;13.19;39.10;98856.72;4488287;31;32000;-63
2022/04/05 09:19:51;;;;;;;;;;;;;;;13.36;38.71;98861.31;4488082;31;33904;-62
2022/04/05 09:22:31;;;;;;;;;;;;;;;13.96;37.43;98855.22;4486664;31;33147;-62
2022/04/05 09:25:06;;;;;;;;;;;;;;;13.25;39.40;98857.00;4490450;31;35137;-61
2022/04/05 09:27:44;;;;;;;;;;;;;;;13.49;39.79;98855.53;4485774;31;33203;-62
2022/04/05 09:30:19;;;;;;;;;;;;;;;13.40;39.67;98846.56;4485826;31;34220;-63
2022/04/05 09:32:48;;;;;;;;;;;;;;;13.32;40.18;98853.69;4484237;31;33103;-63
2022/04/05 09:35:21;;;;;;;;;;;;;;;13.46;40.10;98853.16;4484796;31;34035;-62
2022/04/05 09:37:51;;;;;;;;;;;;;;;13.12;40.38;98845.75;4484642;31;34204;-62
2022/04/05 09:40:24;;;;;;;;;;;;;;;13.54;39.96;98852.38;4484834;31;34127;-61
2022/04/05 09:43:15;;;;;;;;;;;;;;;13.39;40.49;98855.63;4485118;31;34920;-62
2022/04/05 09:45:48;;;;;;;;;;;;;;;13.49;40.08;98855.53;4483961;31;34217;-61
2022/04/05 09:48:20;;;;;;;;;;;;;;;12.94;41.08;98859.19;4487371;31;34839;-61
2022/04/05 09:51:09;;;;;;;;;;;;;;;12.81;41.72;98858.69;4487444;31;34454;-64
2022/04/05 09:53:39;;;;;;;;;;;;;;;13.23;41.31;98858.97;4484949;31;33429;-61
2022/04/05 09:56:18;;;;;;;;;;;;;;;13.16;39.80;98860.59;4483360;31;34343;-61
2022/04/05 09:59:13;;;;;;;;;;;;;;;12.37;40.85;98861.16;4491230;31;32167;-61
2022/04/05 10:01:46;;;;;;;;;;;;;;;12.30;41.06;98860.06;4478610;31;34854;-61
2022/04/05 10:04:19;;;;;;;;;;;;;;;12.44;41.69;98858.75;4486432;31;33210;-62
2022/04/05 10:06:56;;;;;;;;;;;;;;;12.65;41.80;98859.34;4484862;31;33220;-61
2022/04/05 10:09:29;;;;;;;;;;;;;;;12.96;41.24;98859.00;4475038;31;32826;-61
2022/04/05 10:12:05;;;;;;;;;;;;;;;13.12;40.90;98861.03;4484718;31;35129;-64
2022/04/05 10:14:45;;;;;;;;;;;;;;;12.73;41.18;98862.12;4483612;31;33949;-63
2022/04/05 10:17:17;;;;;;;;;;;;;;;12.57;41.75;98856.56;4479397;31;32785;-61
2022/04/05 10:19:50;;;;;;;;;;;;;;;13.35;39.77;98850.69;4484036;31;34503;-61
2022/04/05 10:22:22;;;;;;;;;;;;;;;12.59;41.90;98851.91;4490310;31;35150;-62
2022/04/05 10:24:57;;;;;;;;;;;;;;;12.61;42.02;98854.41;4484398;31;33176;-62
2022/04/05 10:27:28;;;;;;;;;;;;;;;13.44;41.26;98845.25;4484059;31;35578;-63
2022/04/05 10:30:20;;;;;;;;;;;;;;;13.45;40.18;98838.88;4488946;31;32122;-62
2022/04/05 10:33:06;;;;;;;;;;;;;;;13.59;39.87;98848.22;4491427;31;34302;-61
2022/04/05 10:35:38;;;;;;;;;;;;;;;13.78;40.54;98852.59;4493815;31;33565;-62
2022/04/05 10:38:13;;;;;;;;;;;;;;;14.72;39.15;98838.31;4472480;32;34509;-62
2022/04/05 10:41:03;;;;;;;;;;;;;;;15.36;37.93;98844.00;4483332;31;32317;-61
2022/04/05 10:43:33;;;;;;;;;;;;;;;15.13;36.69;98836.56;4493512;31;32833;-63
2022/04/05 10:46:07;;;;;;;;;;;;;;;15.48;37.25;98847.22;4495326;31;34379;-63
2022/04/05 10:48:53;;;;;;;;;;;;;;;14.58;37.78;98834.41;4484804;31;33087;-61
2022/04/05 10:51:31;;;;;;;;;;;;;;;15.71;37.33;98842.87;4484081;31;33015;-62
2022/04/05 10:54:18;;;;;;;;;;;;;;;16.04;34.47;98842.81;4488573;31;35099;-63
2022/04/05 10:57:08;;;;;;;;;;;;;;;15.80;35.18;98833.75;4494515;31;34399;-61
2022/04/05 10:59:55;;;;;;;;;;;;;;;16.02;33.59;98829.50;4485691;31;34351;-61
2022/04/05 11:02:37;;;;;;;;;;;;;;;15.78;34.82;98837.63;4488284;31;33246;-61
2022/04/05 11:05:14;;;;;;;;;;;;;;;16.11;33.74;98843.81;4485711;31;34793;-61
2022/04/05 11:07:51;;;;;;;;;;;;;;;16.54;33.76;98834.41;4481955;31;34333;-62
2022/04/05 11:10:22;;;;;;;;;;;;;;;16.70;33.08;98830.81;4487471;31;35223;-62
2022/04/05 11:12:50;;;;;;;;;;;;;;;16.94;33.15;98827.16;4489211;31;33274;-62
2022/04/05 11:15:20;;;;;;;;;;;;;;;16.98;33.13;98824.94;4488172;31;33025;-63
2022/04/05 11:17:49;;;;;;;;;;;;;;;17.13;32.19;98835.84;4486039;31;33073;-62
2022/04/05 11:20:18;;;;;;;;;;;;;;;16.79;32.46;98837.06;4485355;31;32753;-62
2022/04/05 11:22:47;;;;;;;;;;;;;;;16.02;33.48;98832.22;4470563;31;32838;-61
2022/04/05 11:25:25;;;;;;;;;;;;;;;16.01;33.87;98844.00;4469169;31;33268;-61
2022/04/05 11:27:53;;;;;;;;;;;;;;;16.61;32.87;98836.41;4482694;31;35124;-61
2022/04/05 11:30:44;;;;;;;;;;;;;;;16.56;33.40;98836.09;4485376;31;33042;-61
2022/04/05 11:33:18;;;;;;;;;;;;;;;16.07;33.88;98843.31;4491279;31;33684;-63
2022/04/05 11:35:46;;;;;;;;;;;;;;;15.96;35.55;98841.00;4484132;31;34187;-62
2022/04/05 11:38:19;;;;;;;;;;;;;;;16.65;33.89;98840.44;4480379;31;33138;-62
2022/04/05 11:41:05;;;;;;;;;;;;;;;16.61;33.92;98841.81;4480854;31;34185;-61
2022/04/05 11:43:35;;;;;;;;;;;;;;;16.61;34.88;98847.22;4480018;31;32087;-64
2022/04/05 11:46:12;;;;;;;;;;;;;;;16.49;35.53;98842.19;4482574;31;35166;-64
2022/04/05 11:48:45;;;;;;;;;;;;;;;16.41;36.20;98849.50;4476030;31;34444;-62
2022/04/05 11:51:14;;;;;;;;;;;;;;;16.14;36.89;98840.78;4488672;31;34439;-62
2022/04/05 11:53:44;;;;;;;;;;;;;;;16.20;36.42;98850.87;4480248;31;33455;-62
2022/04/05 11:56:17;;;;;;;;;;;;;;;16.47;36.07;98846.09;4479124;31;34031;-62
2022/04/05 11:58:53;;;;;;;;;;;;;;;16.62;36.13;98854.31;4483989;31;34010;-62
2022/04/05 12:01:41;;;;;;;;;;;;;;;16.57;36.50;98848.59;4487283;31;33896;-63
2022/04/05 12:04:11;;;;;;;;;;;;;;;16.49;36.64;98852.16;4484532;31;34532;-63
2022/04/05 12:06:44;;;;;;;;;;;;;;;16.76;36.18;98853.62;4479625;31;34077;-61
2022/04/05 12:09:12;;;;;;;;;;;;;;;16.07;37.76;98853.28;4465225;32;37101;-63
2022/04/05 12:11:41;;;;;;;;;;;;;;;16.27;37.04;98856.44;4484985;31;32976;-61
2022/04/05 12:14:10;;;;;;;;;;;;;;;16.49;36.07;98855.69;4488017;31;34588;-62
2022/04/05 12:16:45;;;;;;;;;;;;;;;16.54;36.42;98834.41;4481056;31;34236;-62
2022/04/05 12:19:36;;;;;;;;;;;;;;;16.44;36.06;98831.09;4481928;31;34080;-62
2022/04/05 12:22:05;;;;;;;;;;;;;;;16.34;36.80;98838.56;4474393;31;35226;-62
2022/04/05 12:24:34;;;;;;;;;;;;;;;16.07;37.06;98831.69;4485016;31;33804;-61
2022/04/05 12:27:03;;;;;;;;;;;;;;;16.65;36.19;98841.28;4479026;31;33012;-62
2022/04/05 12:29:31;;;;;;;;;;;;;;;16.28;35.94;98825.75;4486006;31;35786;-62
2022/04/05 12:32:06;;;;;;;;;;;;;;;16.50;35.58;98830.38;4465854;31;33632;-63
2022/04/05 12:34:34;;;;;;;;;;;;;;;16.85;35.36;98825.50;4483349;31;31982;-63
2022/04/05 12:37:02;;;;;;;;;;;;;;;17.00;34.88;98826.44;4483006;31;37065;-63
2022/04/05 12:39:30;;;;;;;;;;;;;;;16.91;35.39;98827.50;4482669;31;35310;-64
2022/04/05 12:42:06;;;;;;;;;;;;;;;16.06;36.74;98828.16;4482210;31;33086;-62
2022/04/05 12:44:38;;;;;;;;;;;;;;;15.78;37.62;98816.88;4483749;31;32244;-63
2022/04/05 12:47:06;;;;;;;;;;;;;;;16.23;36.50;98823.53;4486915;31;33860;-63
2022/04/05 12:49:38;;;;;;;;;;;;;;;16.34;36.40;98821.47;4487913;31;33551;-63
2022/04/05 12:52:26;;;;;;;;;;;;;;;16.80;35.36;98824.38;4481328;31;33974;-63
2022/04/05 12:54:58;;;;;;;;;;;;;;;16.62;36.64;98833.53;4485757;31;31457;-64
2022/04/05 12:57:29;;;;;;;;;;;;;;;16.56;35.64;98806.38;4482780;31;33976;-63
2022/04/05 13:00:07;;;;;;;;;;;;;;;15.83;37.72;98822.63;4484918;31;34310;-64
2022/04/05 13:02:36;;;;;;;;;;;;;;;16.71;36.16;98807.31;4485859;31;33037;-64
2022/04/05 13:07:57;;;;;;;;;;;;;;;16.81;36.30;98799.88;4483219;31;35244;-62
2022/04/05 13:10:35;;;;;;;;;;;;;;;17.23;35.06;98810.22;4481870;31;33095;-62
2022/04/05 13:13:21;;;;;;;;;;;;;;;16.76;36.35;98803.09;4481020;31;34374;-64
2022/04/05 13:16:11;;;;;;;;;;;;;;;17.44;35.31;98809.56;4484270;31;35185;-62
2022/04/05 13:18:45;;;;;;;;;;;;;;;17.73;34.62;98807.97;4481533;31;33065;-63
2022/04/05 13:21:14;;;;;;;;;;;;;;;17.45;35.30;98800.44;4484436;31;35560;-63
2022/04/05 13:23:43;;;;;;;;;;;;;;;17.22;35.85;98803.16;4485079;31;34123;-64
2022/04/05 13:26:37;;;;;;;;;;;;;;;17.43;35.93;98791.69;4479873;31;33507;-63
2022/04/05 13:29:09;;;;;;;;;;;;;;;17.56;34.91;98799.19;4482525;31;34208;-63